Northern Expedition — CFN5364 — position and weather

sailwx.info

Track history (hours):
 
Tides and Currents Weather Stations Pressure Air Temp Water Temp Dewpoint Dewpoint Depression Visibility Wind Speed Wind Dir Waves Ship Positions

Northern Expedition

Last reported at 2015-Jan-25 23:33 UTC. Time now 2015-Jan-26 00:21 UTC.
Position N 54°18' W 130°21'.

Length 151 m; draft 5 m.

Type: Ship. MMSI: 316014054.

Date/timePositionNaut miles runAvg speedWind from/ knotsBaromVisibWave heightAir tempDewpointWater temp
2015-Jan-25 23:33N 54°18' W 130°21'19010.3
2015-Jan-25 05:11N 51°31' W 127°52'1614.9
2015-Jan-25 04:07N 51°15' W 127°53'1017.6
2015-Jan-25 03:33N 51°05' W 127°48'1717.0
2015-Jan-25 02:33N 50°52' W 127°32'9 7.8
2015-Jan-25 01:27N 50°44' W 127°27'0 0.0
2015-Jan-24 20:06N 50°44' W 127°27'0 0.0
2015-Jan-24 18:09N 50°44' W 127°27'5 2.7
2015-Jan-24 16:21N 50°48' W 127°27'1316.2
2015-Jan-24 15:33N 50°56' W 127°42'1414.1
2015-Jan-24 14:33N 51°10' W 127°51'  
2015-Jan-17 14:33N 51°05' W 127°50'1714.7
2015-Jan-17 13:23N 51°22' W 127°52'  
Track history (hours):
 
Tides and Currents Weather Stations Pressure Air Temp Water Temp Dewpoint Dewpoint Depression Visibility Wind Speed Wind Dir Waves Ship Positions

Northern Expedition

Last reported at 2015-Jan-25 23:33 UTC. Time now 2015-Jan-26 00:21 UTC.
Position N 54°18' W 130°21'.

Length 151 m; draft 5 m.

Type: Ship. MMSI: 316014054.

Date/timePositionNaut miles runAvg speedWind from/ knotsBaromVisibWave heightAir tempDewpointWater temp
2015-Jan-25 23:33N 54°18' W 130°21'19010.3
2015-Jan-25 05:11N 51°31' W 127°52'1614.9
2015-Jan-25 04:07N 51°15' W 127°53'1017.6
2015-Jan-25 03:33N 51°05' W 127°48'1717.0
2015-Jan-25 02:33N 50°52' W 127°32'9 7.8
2015-Jan-25 01:27N 50°44' W 127°27'0 0.0
2015-Jan-24 20:06N 50°44' W 127°27'0 0.0
2015-Jan-24 18:09N 50°44' W 127°27'5 2.7
2015-Jan-24 16:21N 50°48' W 127°27'1316.2
2015-Jan-24 15:33N 50°56' W 127°42'1414.1
2015-Jan-24 14:33N 51°10' W 127°51'  
2015-Jan-17 14:33N 51°05' W 127°50'1714.7
2015-Jan-17 13:23N 51°22' W 127°52'  

Dump ship's entire track history